createdAt,value
2019-03-12T00:01:29.568Z,3.05
2019-03-12T00:03:59.386Z,2.30
2019-03-12T00:06:29.361Z,2.60
2019-03-12T00:09:18.652Z,2.12
2019-03-12T00:11:48.724Z,1.87
2019-03-12T00:14:38.248Z,2.55
2019-03-12T00:17:08.312Z,1.87
2019-03-12T00:19:38.995Z,2.40
2019-03-12T00:22:08.825Z,2.25
2019-03-12T00:24:58.233Z,2.00
2019-03-12T00:27:47.740Z,2.30
2019-03-12T00:30:37.063Z,2.12
2019-03-12T00:33:06.940Z,1.70
2019-03-12T00:35:56.220Z,2.10
2019-03-12T00:38:46.091Z,1.90
2019-03-12T00:41:16.113Z,2.17
2019-03-12T00:43:46.054Z,4.67
2019-03-12T00:46:15.845Z,2.60
2019-03-12T00:48:46.165Z,2.55
2019-03-12T00:51:35.467Z,2.10
2019-03-12T00:54:05.453Z,1.87
2019-03-12T00:56:55.242Z,1.90
2019-03-12T00:59:45.204Z,1.92
2019-03-12T01:02:15.117Z,2.10
2019-03-12T01:04:44.957Z,2.33
2019-03-12T01:07:14.875Z,2.20
2019-03-12T01:09:44.813Z,2.85
2019-03-12T01:12:34.148Z,2.10
2019-03-12T01:15:04.898Z,2.30
2019-03-12T01:17:34.835Z,2.15
2019-03-12T01:20:07.505Z,1.82
2019-03-12T01:22:37.390Z,2.50
2019-03-12T01:25:08.246Z,2.27
2019-03-12T01:27:38.293Z,2.42
2019-03-12T01:30:16.789Z,2.55
2019-03-12T01:32:46.671Z,2.40
2019-03-12T01:35:35.970Z,2.40
2019-03-12T01:38:25.244Z,1.90
2019-03-12T01:41:17.496Z,1.92
2019-03-12T01:44:06.785Z,3.02
2019-03-12T01:46:56.193Z,2.55
2019-03-12T01:49:26.050Z,2.20
2019-03-12T01:52:15.485Z,2.37
2019-03-12T01:55:06.022Z,2.45
2019-03-12T01:57:55.491Z,2.00
2019-03-12T02:00:44.794Z,2.00
2019-03-12T02:03:34.203Z,2.67
2019-03-12T02:06:23.677Z,2.83
2019-03-12T02:09:13.685Z,2.62
2019-03-12T02:11:43.686Z,2.30
2019-03-12T02:14:25.209Z,2.85
2019-03-12T02:17:14.566Z,2.22
2019-03-12T02:19:44.378Z,2.52
2019-03-12T02:22:33.731Z,2.83
2019-03-12T02:25:05.118Z,2.20
2019-03-12T02:27:54.885Z,2.80
2019-03-12T02:30:24.893Z,2.25
2019-03-12T02:33:14.168Z,2.50
2019-03-12T02:36:04.065Z,2.10
2019-03-12T02:38:33.846Z,2.67
2019-03-12T02:41:04.415Z,2.40
2019-03-12T02:43:34.333Z,2.17
2019-03-12T02:46:04.233Z,2.47
2019-03-12T02:48:53.881Z,2.08
2019-03-12T02:51:23.961Z,2.10
2019-03-12T02:53:55.019Z,2.62
2019-03-12T02:56:24.918Z,1.92
2019-03-12T02:58:54.840Z,2.05
2019-03-12T03:01:24.991Z,2.35
2019-03-12T03:03:55.031Z,2.30
2019-03-12T03:06:33.118Z,2.62
2019-03-12T03:09:04.764Z,2.27
2019-03-12T03:11:34.751Z,2.30
2019-03-12T03:14:05.132Z,2.22
2019-03-12T03:16:54.489Z,2.40
2019-03-12T03:19:24.555Z,2.60
2019-03-12T03:21:54.430Z,2.60
2019-03-12T03:24:24.488Z,2.55
2019-03-12T03:26:54.348Z,2.45
2019-03-12T03:29:24.774Z,3.10
2019-03-12T03:32:24.280Z,2.22
2019-03-12T03:35:13.798Z,2.50
2019-03-12T03:37:44.043Z,2.60
2019-03-12T03:40:16.613Z,2.90
2019-03-12T03:43:05.900Z,2.75
2019-03-12T03:45:36.672Z,1.70
2019-03-12T03:48:06.684Z,2.40
2019-03-12T03:50:57.313Z,2.00
2019-03-12T03:53:46.748Z,2.30
2019-03-12T03:56:16.639Z,2.67
2019-03-12T03:59:07.666Z,2.60
2019-03-12T04:01:37.652Z,2.72
2019-03-12T04:04:26.914Z,2.55
2019-03-12T04:06:57.402Z,2.47
2019-03-12T04:09:39.784Z,2.33
2019-03-12T04:12:29.428Z,2.47
2019-03-12T04:14:59.254Z,3.05
2019-03-12T04:17:29.595Z,2.42
2019-03-12T04:19:59.483Z,2.87
2019-03-12T04:22:29.539Z,2.60
2019-03-12T04:24:59.580Z,2.37
2019-03-12T04:27:29.740Z,2.58
2019-03-12T04:30:19.146Z,3.05
2019-03-12T04:32:49.079Z,2.70
2019-03-12T04:35:19.433Z,2.70
2019-03-12T04:40:24.575Z,2.35
2019-03-12T04:43:13.846Z,2.50
2019-03-12T04:46:03.138Z,2.90
2019-03-12T04:48:53.131Z,3.10
2019-03-12T04:51:23.361Z,2.92
2019-03-12T04:53:53.266Z,2.60
2019-03-12T04:56:23.138Z,2.72
2019-03-12T04:58:52.938Z,2.50
2019-03-12T05:01:23.007Z,2.02
2019-03-12T05:03:53.369Z,2.20
2019-03-12T05:06:25.200Z,3.00
2019-03-12T05:08:55.113Z,3.15
2019-03-12T05:11:39.189Z,2.37
2019-03-12T05:14:49.077Z,3.08
2019-03-12T05:17:28.069Z,2.50
2019-03-12T05:19:58.022Z,2.70
2019-03-12T05:22:27.968Z,2.52
2019-03-12T05:25:17.633Z,2.40
2019-03-12T05:27:47.520Z,2.80
2019-03-12T05:30:36.983Z,2.60
2019-03-12T05:33:06.950Z,3.27
2019-03-12T05:35:56.853Z,2.47
2019-03-12T05:38:26.971Z,2.85
2019-03-12T05:40:56.912Z,4.15
2019-03-12T05:43:27.337Z,2.98
2019-03-12T05:46:17.399Z,2.20
2019-03-12T05:48:47.398Z,2.85
2019-03-12T05:51:17.500Z,2.15
2019-03-12T05:54:07.424Z,2.55
2019-03-12T05:56:37.285Z,2.67
2019-03-12T05:59:28.347Z,3.50
2019-03-12T06:01:58.530Z,2.52
2019-03-12T06:04:48.160Z,2.50
2019-03-12T06:07:18.210Z,3.80
2019-03-12T06:09:48.522Z,3.10
2019-03-12T06:12:33.468Z,2.67
2019-03-12T06:18:00.378Z,2.62
2019-03-12T06:20:30.513Z,2.00
2019-03-12T06:23:00.626Z,2.60
2019-03-12T06:25:31.240Z,2.02
2019-03-12T06:28:21.435Z,2.70
2019-03-12T06:31:30.687Z,2.45
2019-03-12T06:34:20.289Z,2.80
2019-03-12T06:40:11.568Z,2.52
2019-03-12T06:43:20.638Z,2.70
2019-03-12T06:46:29.914Z,2.12
2019-03-12T06:49:19.760Z,2.25
2019-03-12T06:52:04.009Z,2.25
2019-03-12T06:55:33.375Z,2.50
2019-03-12T06:58:42.867Z,2.65
2019-03-12T07:02:14.935Z,2.45
2019-03-12T07:04:44.265Z,3.10
2019-03-12T07:07:34.585Z,3.08
2019-03-12T07:14:02.576Z,2.45
2019-03-12T07:17:02.702Z,2.98
2019-03-12T07:19:53.681Z,2.40
2019-03-12T07:22:35.818Z,2.30
2019-03-12T07:28:50.798Z,1.80
2019-03-12T07:34:59.714Z,2.37
2019-03-12T07:37:49.881Z,1.95
2019-03-12T07:43:26.672Z,2.00
2019-03-12T07:46:16.043Z,2.47
2019-03-12T07:49:26.058Z,2.00
2019-03-12T07:52:23.506Z,2.00
2019-03-12T07:55:13.138Z,2.10
2019-03-12T07:58:02.599Z,1.70
2019-03-12T08:01:11.989Z,1.72
2019-03-12T08:06:53.999Z,1.70
2019-03-12T08:12:38.992Z,1.87
2019-03-12T08:18:27.722Z,1.90
2019-03-12T08:23:57.444Z,1.60
2019-03-12T08:27:02.741Z,1.90
2019-03-12T08:29:53.150Z,1.45
2019-03-12T08:32:46.087Z,1.82
2019-03-12T08:35:35.652Z,1.37
2019-03-12T08:38:19.511Z,1.37
2019-03-12T08:41:14.446Z,1.60
2019-03-12T08:44:10.610Z,2.27
2019-03-12T08:50:09.788Z,1.40
2019-03-12T08:58:54.329Z,1.85
2019-03-12T09:16:25.201Z,2.45
2019-03-12T09:18:42.210Z,1.80
2019-03-12T09:21:32.022Z,2.30
2019-03-12T09:30:14.096Z,1.45
2019-03-12T09:33:23.953Z,1.40
2019-03-12T09:36:12.517Z,1.90
2019-03-12T09:38:50.597Z,1.65
2019-03-12T09:41:40.497Z,1.57
2019-03-12T09:44:30.906Z,1.47
2019-03-12T09:47:41.274Z,1.10
2019-03-12T09:50:44.507Z,1.55
2019-03-12T09:54:13.489Z,1.30
2019-03-12T09:56:55.147Z,1.60
2019-03-12T10:08:33.775Z,1.70
2019-03-12T10:17:16.029Z,1.82
2019-03-12T10:20:11.615Z,1.70
2019-03-12T10:22:51.535Z,2.33
2019-03-12T10:26:08.110Z,1.60
2019-03-12T10:28:59.865Z,2.45
2019-03-12T10:32:10.435Z,1.20
2019-03-12T10:35:03.786Z,2.00
2019-03-12T10:38:15.403Z,1.92
2019-03-12T10:41:05.524Z,1.82
2019-03-12T10:44:02.456Z,1.10
2019-03-12T10:47:11.652Z,1.50
2019-03-12T10:50:01.123Z,1.70
2019-03-12T10:52:31.780Z,1.50
2019-03-12T10:55:21.823Z,1.50
2019-03-12T10:58:11.418Z,1.60
2019-03-12T11:00:41.948Z,1.30
2019-03-12T11:03:12.339Z,1.50
2019-03-12T11:08:39.238Z,1.40
2019-03-12T11:11:12.876Z,1.42
2019-03-12T11:14:02.893Z,1.55
2019-03-12T11:16:35.834Z,1.57
2019-03-12T11:19:06.372Z,1.75
2019-03-12T11:21:55.865Z,1.37
2019-03-12T11:24:26.641Z,1.40
2019-03-12T11:26:56.797Z,0.93
2019-03-12T11:32:15.370Z,1.20
2019-03-12T11:35:05.217Z,1.40
2019-03-12T11:37:37.623Z,1.12
2019-03-12T11:55:22.368Z,1.25
2019-03-12T11:58:12.650Z,1.40
2019-03-12T12:01:22.057Z,1.07
2019-03-12T12:04:12.171Z,1.15
2019-03-12T12:06:44.948Z,0.95
2019-03-12T12:09:15.177Z,0.80
2019-03-12T12:11:58.128Z,1.17
2019-03-12T12:14:47.839Z,0.95
2019-03-12T12:17:38.066Z,0.90
2019-03-12T12:20:30.051Z,0.98
2019-03-12T12:23:17.968Z,0.90
2019-03-12T12:28:37.176Z,1.60
2019-03-12T12:31:07.392Z,0.95
2019-03-12T12:33:57.180Z,1.00
2019-03-12T12:36:27.265Z,1.00
2019-03-12T12:39:17.524Z,1.10
2019-03-12T12:42:07.039Z,1.05
2019-03-12T12:44:57.250Z,1.00
2019-03-12T12:47:27.382Z,2.98
2019-03-12T12:50:17.002Z,1.07
2019-03-12T12:53:07.187Z,1.10
2019-03-12T12:58:58.421Z,1.10
2019-03-12T13:01:48.083Z,0.60
2019-03-12T13:07:32.193Z,1.10
2019-03-12T13:10:22.661Z,1.17
2019-03-12T13:13:07.013Z,0.90
2019-03-12T13:15:56.643Z,0.82
2019-03-12T13:18:26.611Z,0.88
2019-03-12T13:20:56.617Z,1.35
2019-03-12T13:23:26.660Z,1.30
2019-03-12T13:25:57.114Z,2.02
2019-03-12T13:28:27.048Z,4.15
2019-03-12T13:31:16.612Z,1.07
2019-03-12T13:34:05.970Z,0.90
2019-03-12T13:36:35.990Z,1.22
2019-03-12T13:39:06.913Z,1.22
2019-03-12T13:41:36.812Z,1.02
2019-03-12T13:44:06.852Z,1.40
2019-03-12T13:46:36.812Z,1.60
2019-03-12T13:49:26.817Z,1.27
2019-03-12T13:51:57.029Z,1.62
2019-03-12T13:54:46.787Z,1.52
2019-03-12T13:57:16.998Z,1.52
2019-03-12T14:00:11.132Z,1.50
2019-03-12T14:03:01.162Z,1.52
2019-03-12T14:05:51.096Z,1.70
2019-03-12T14:08:40.806Z,2.45
2019-03-12T14:11:24.381Z,1.07
2019-03-12T14:14:13.968Z,2.00
2019-03-12T14:17:03.555Z,1.45
2019-03-12T14:19:33.654Z,1.85
2019-03-12T14:22:27.415Z,1.80
2019-03-12T14:25:17.101Z,1.30
2019-03-12T14:27:47.446Z,1.40
2019-03-12T14:30:17.619Z,1.52
2019-03-12T14:33:07.795Z,1.65
2019-03-12T14:35:50.398Z,1.60
2019-03-12T14:38:29.344Z,3.00
2019-03-12T14:41:19.394Z,2.00
2019-03-12T14:49:53.778Z,1.65
2019-03-12T14:52:42.650Z,1.90
2019-03-12T14:58:32.043Z,1.67
2019-03-12T15:12:32.134Z,1.60
2019-03-12T15:16:24.254Z,1.60
2019-03-12T15:21:01.881Z,1.25
2019-03-12T15:23:33.264Z,1.85
2019-03-12T15:34:23.328Z,1.57
2019-03-12T15:37:13.120Z,1.40
2019-03-12T15:40:05.292Z,1.30
2019-03-12T15:42:35.613Z,1.60
2019-03-12T15:48:07.579Z,1.32
2019-03-12T15:51:20.429Z,1.45
2019-03-12T15:54:10.362Z,1.90
2019-03-12T15:57:00.290Z,1.17
2019-03-12T15:59:53.957Z,1.65
2019-03-12T16:03:17.046Z,1.90
2019-03-12T16:05:47.370Z,1.70
2019-03-12T16:08:17.610Z,2.02
2019-03-12T16:10:57.765Z,1.27
2019-03-12T16:13:42.756Z,2.65
2019-03-12T16:16:26.135Z,1.45
2019-03-12T16:18:59.405Z,2.45
2019-03-12T16:24:43.663Z,2.80
2019-03-12T16:27:35.014Z,3.12
2019-03-12T16:43:28.822Z,1.50
2019-03-12T16:53:00.621Z,1.40
2019-03-12T16:55:40.177Z,1.70
2019-03-12T17:01:14.237Z,2.25
2019-03-12T17:22:35.945Z,1.77
2019-03-12T17:25:15.236Z,3.77
2019-03-12T17:27:58.669Z,2.08
2019-03-12T17:40:12.776Z,1.62
2019-03-12T17:43:02.886Z,1.50
2019-03-12T17:45:52.987Z,1.70
2019-03-12T17:51:32.224Z,1.90
2019-03-12T17:54:22.219Z,1.90
2019-03-12T17:56:52.777Z,1.50
2019-03-12T17:59:42.708Z,1.70
2019-03-12T18:02:42.505Z,1.77
2019-03-12T18:05:26.244Z,1.60
2019-03-12T18:07:56.755Z,1.50
2019-03-12T18:10:27.315Z,1.70
2019-03-12T18:12:58.130Z,1.80
2019-03-12T18:15:47.697Z,1.80
2019-03-12T18:18:18.394Z,2.20
2019-03-12T18:20:48.591Z,1.67
2019-03-12T18:23:19.853Z,2.00
2019-03-12T18:28:54.346Z,2.27
2019-03-12T18:31:44.958Z,2.70
2019-03-12T18:37:12.289Z,2.00
2019-03-12T18:42:59.151Z,1.70
2019-03-12T18:45:50.654Z,1.90
2019-03-12T18:48:44.635Z,2.10
2019-03-12T18:57:45.775Z,1.75
2019-03-12T19:00:35.224Z,2.37
2019-03-12T19:03:24.914Z,2.60
2019-03-12T19:06:16.006Z,1.90
2019-03-12T19:08:48.546Z,2.08
2019-03-12T19:14:56.788Z,2.33
2019-03-12T19:17:27.026Z,2.45
2019-03-12T19:19:57.340Z,1.67
2019-03-12T19:22:27.557Z,2.55
2019-03-12T19:25:17.198Z,1.70
2019-03-12T19:27:59.196Z,2.00
2019-03-12T19:31:17.787Z,1.82
2019-03-12T19:37:27.183Z,1.90
2019-03-12T19:40:21.985Z,2.22
2019-03-12T19:43:14.235Z,2.50
2019-03-12T19:46:03.804Z,1.95
2019-03-12T19:48:54.169Z,1.72
2019-03-12T19:51:24.460Z,1.70
2019-03-12T19:54:15.566Z,1.72
2019-03-12T19:57:05.353Z,1.50
2019-03-12T19:59:36.814Z,1.57
2019-03-12T20:02:15.927Z,1.80
2019-03-12T20:05:17.771Z,1.87
2019-03-12T20:08:09.502Z,1.60
2019-03-12T20:11:31.236Z,2.20
2019-03-12T20:21:16.620Z,2.12
2019-03-12T20:39:12.102Z,1.85
2019-03-12T20:48:27.923Z,1.45
2019-03-12T20:54:31.651Z,2.42
2019-03-12T21:17:41.496Z,1.75
2019-03-12T21:23:30.960Z,1.75
2019-03-12T21:32:33.125Z,1.60
2019-03-12T21:38:50.395Z,1.30
2019-03-12T21:41:06.357Z,1.27
2019-03-12T21:50:18.194Z,1.75
2019-03-12T21:53:24.121Z,1.95
2019-03-12T21:55:58.853Z,1.30
2019-03-12T21:58:51.068Z,1.40
2019-03-12T22:01:42.298Z,2.52
2019-03-12T22:04:44.329Z,1.60
2019-03-12T22:07:25.712Z,1.20
2019-03-12T22:12:37.001Z,1.55
2019-03-12T22:18:01.857Z,1.60
2019-03-12T22:20:34.886Z,1.27
2019-03-12T22:23:30.297Z,1.10
2019-03-12T22:26:21.584Z,1.30
2019-03-12T22:29:33.547Z,1.55
2019-03-12T22:32:04.463Z,1.90
2019-03-12T22:34:54.546Z,1.65
2019-03-12T22:37:28.271Z,1.80
2019-03-12T22:39:58.407Z,1.65
2019-03-12T22:42:48.609Z,1.87
2019-03-12T22:45:18.984Z,1.50
2019-03-12T22:47:51.561Z,1.15
2019-03-12T22:50:22.151Z,1.20
2019-03-12T22:52:52.508Z,1.37
2019-03-12T23:01:19.388Z,1.72
2019-03-12T23:04:43.686Z,1.60
2019-03-12T23:10:36.246Z,1.90
2019-03-12T23:13:07.467Z,2.60
2019-03-12T23:15:38.116Z,2.22
2019-03-12T23:18:28.698Z,1.80
2019-03-12T23:21:19.097Z,2.37
2019-03-12T23:23:49.590Z,1.92
2019-03-12T23:26:19.852Z,1.90
2019-03-12T23:28:50.179Z,1.90
2019-03-12T23:31:20.900Z,1.50
2019-03-12T23:33:51.747Z,2.08
2019-03-12T23:36:22.001Z,1.62
2019-03-12T23:39:11.455Z,1.50
2019-03-12T23:41:41.731Z,1.60
2019-03-12T23:44:11.679Z,1.35
2019-03-12T23:46:42.020Z,1.72
2019-03-12T23:49:12.482Z,1.12
2019-03-12T23:51:42.800Z,1.60
2019-03-12T23:54:13.337Z,1.47
2019-03-12T23:56:44.265Z,1.12
2019-03-12T23:59:15.360Z,1.50
